sensor_id;sensor_type;location;lat;lon;timestamp;P1;durP1;ratioP1;P2;durP2;ratioP2
11835;SDS011;5977;51.972;7.640;2022-10-31T00:01:25;147.83;;;49.13;;
11835;SDS011;5977;51.972;7.640;2022-10-31T00:03:54;147.47;;;48.90;;
11835;SDS011;5977;51.972;7.640;2022-10-31T00:06:22;147.50;;;48.87;;
11835;SDS011;5977;51.972;7.640;2022-10-31T00:08:51;147.17;;;48.83;;
11835;SDS011;5977;51.972;7.640;2022-10-31T00:11:20;147.47;;;48.87;;
11835;SDS011;5977;51.972;7.640;2022-10-31T00:13:50;147.10;;;49.07;;
11835;SDS011;5977;51.972;7.640;2022-10-31T00:16:19;147.33;;;48.70;;
11835;SDS011;5977;51.972;7.640;2022-10-31T00:18:49;147.50;;;49.03;;
11835;SDS011;5977;51.972;7.640;2022-10-31T00:21:17;147.00;;;48.83;;
11835;SDS011;5977;51.972;7.640;2022-10-31T00:23:45;147.57;;;48.73;;
11835;SDS011;5977;51.972;7.640;2022-10-31T00:26:13;147.63;;;48.97;;
11835;SDS011;5977;51.972;7.640;2022-10-31T00:28:42;147.87;;;49.07;;
11835;SDS011;5977;51.972;7.640;2022-10-31T00:31:11;147.50;;;48.97;;
11835;SDS011;5977;51.972;7.640;2022-10-31T00:33:40;147.30;;;48.60;;
11835;SDS011;5977;51.972;7.640;2022-10-31T00:36:10;147.60;;;48.77;;
11835;SDS011;5977;51.972;7.640;2022-10-31T00:38:39;147.00;;;48.60;;
11835;SDS011;5977;51.972;7.640;2022-10-31T00:41:08;147.20;;;48.60;;
11835;SDS011;5977;51.972;7.640;2022-10-31T00:43:39;147.00;;;48.70;;
11835;SDS011;5977;51.972;7.640;2022-10-31T00:46:07;147.17;;;48.87;;
11835;SDS011;5977;51.972;7.640;2022-10-31T00:48:37;146.93;;;48.53;;
11835;SDS011;5977;51.972;7.640;2022-10-31T00:51:05;147.33;;;48.87;;
11835;SDS011;5977;51.972;7.640;2022-10-31T00:53:33;146.80;;;48.43;;
11835;SDS011;5977;51.972;7.640;2022-10-31T00:56:01;147.40;;;48.97;;
11835;SDS011;5977;51.972;7.640;2022-10-31T00:58:29;147.67;;;49.20;;
11835;SDS011;5977;51.972;7.640;2022-10-31T01:00:57;146.80;;;48.43;;
11835;SDS011;5977;51.972;7.640;2022-10-31T01:03:26;146.50;;;48.47;;
11835;SDS011;5977;51.972;7.640;2022-10-31T01:05:58;147.40;;;48.77;;
11835;SDS011;5977;51.972;7.640;2022-10-31T01:08:30;147.43;;;48.77;;
11835;SDS011;5977;51.972;7.640;2022-10-31T01:10:59;147.10;;;48.70;;
11835;SDS011;5977;51.972;7.640;2022-10-31T01:13:29;146.87;;;48.53;;
11835;SDS011;5977;51.972;7.640;2022-10-31T01:15:57;146.97;;;48.60;;
11835;SDS011;5977;51.972;7.640;2022-10-31T01:18:26;146.40;;;48.37;;
11835;SDS011;5977;51.972;7.640;2022-10-31T01:20:59;147.20;;;48.67;;
11835;SDS011;5977;51.972;7.640;2022-10-31T01:23:28;147.10;;;48.73;;
11835;SDS011;5977;51.972;7.640;2022-10-31T01:26:03;147.00;;;48.30;;
11835;SDS011;5977;51.972;7.640;2022-10-31T01:28:33;147.40;;;48.77;;
11835;SDS011;5977;51.972;7.640;2022-10-31T01:31:03;147.40;;;48.87;;
11835;SDS011;5977;51.972;7.640;2022-10-31T01:33:33;147.37;;;48.87;;
11835;SDS011;5977;51.972;7.640;2022-10-31T01:36:10;147.27;;;48.50;;
11835;SDS011;5977;51.972;7.640;2022-10-31T01:38:39;147.17;;;48.67;;
11835;SDS011;5977;51.972;7.640;2022-10-31T01:41:08;147.03;;;48.53;;
11835;SDS011;5977;51.972;7.640;2022-10-31T01:43:50;146.73;;;48.20;;
11835;SDS011;5977;51.972;7.640;2022-10-31T01:46:20;147.60;;;48.73;;
11835;SDS011;5977;51.972;7.640;2022-10-31T01:48:50;147.47;;;48.77;;
11835;SDS011;5977;51.972;7.640;2022-10-31T01:51:22;146.67;;;48.33;;
11835;SDS011;5977;51.972;7.640;2022-10-31T01:53:54;147.30;;;48.67;;
11835;SDS011;5977;51.972;7.640;2022-10-31T01:56:24;147.43;;;48.87;;
11835;SDS011;5977;51.972;7.640;2022-10-31T01:58:53;147.23;;;48.77;;
11835;SDS011;5977;51.972;7.640;2022-10-31T02:01:24;146.70;;;48.23;;
11835;SDS011;5977;51.972;7.640;2022-10-31T02:03:52;147.53;;;49.07;;
11835;SDS011;5977;51.972;7.640;2022-10-31T02:06:27;146.67;;;48.27;;
11835;SDS011;5977;51.972;7.640;2022-10-31T02:09:00;146.60;;;48.43;;
11835;SDS011;5977;51.972;7.640;2022-10-31T02:11:29;146.83;;;48.50;;
11835;SDS011;5977;51.972;7.640;2022-10-31T02:13:58;147.07;;;48.80;;
11835;SDS011;5977;51.972;7.640;2022-10-31T02:16:29;146.73;;;48.17;;
11835;SDS011;5977;51.972;7.640;2022-10-31T02:18:57;147.37;;;48.70;;
11835;SDS011;5977;51.972;7.640;2022-10-31T02:21:28;146.77;;;48.43;;
11835;SDS011;5977;51.972;7.640;2022-10-31T02:30:12;147.07;;;48.50;;
11835;SDS011;5977;51.972;7.640;2022-10-31T02:35:42;146.97;;;48.50;;
11835;SDS011;5977;51.972;7.640;2022-10-31T02:38:26;147.10;;;48.57;;
11835;SDS011;5977;51.972;7.640;2022-10-31T02:41:16;146.43;;;48.03;;
11835;SDS011;5977;51.972;7.640;2022-10-31T02:43:54;146.53;;;48.20;;
11835;SDS011;5977;51.972;7.640;2022-10-31T02:46:28;147.17;;;48.57;;
11835;SDS011;5977;51.972;7.640;2022-10-31T02:49:05;146.63;;;48.43;;
11835;SDS011;5977;51.972;7.640;2022-10-31T02:51:38;146.60;;;48.23;;
11835;SDS011;5977;51.972;7.640;2022-10-31T02:54:15;147.30;;;48.57;;
11835;SDS011;5977;51.972;7.640;2022-10-31T02:56:45;147.17;;;48.50;;
11835;SDS011;5977;51.972;7.640;2022-10-31T02:59:14;146.93;;;48.50;;
11835;SDS011;5977;51.972;7.640;2022-10-31T03:01:50;147.10;;;48.40;;
11835;SDS011;5977;51.972;7.640;2022-10-31T03:04:42;147.10;;;48.60;;
11835;SDS011;5977;51.972;7.640;2022-10-31T03:07:26;147.27;;;48.70;;
11835;SDS011;5977;51.972;7.640;2022-10-31T03:10:04;147.47;;;48.70;;
11835;SDS011;5977;51.972;7.640;2022-10-31T03:12:44;146.80;;;48.30;;
11835;SDS011;5977;51.972;7.640;2022-10-31T03:15:18;146.57;;;48.40;;
11835;SDS011;5977;51.972;7.640;2022-10-31T03:17:50;147.03;;;48.60;;
11835;SDS011;5977;51.972;7.640;2022-10-31T03:20:27;145.83;;;47.83;;
11835;SDS011;5977;51.972;7.640;2022-10-31T03:23:00;147.73;;;48.93;;
11835;SDS011;5977;51.972;7.640;2022-10-31T03:25:30;147.03;;;48.17;;
11835;SDS011;5977;51.972;7.640;2022-10-31T03:28:01;147.17;;;48.43;;
11835;SDS011;5977;51.972;7.640;2022-10-31T03:30:31;146.90;;;48.60;;
11835;SDS011;5977;51.972;7.640;2022-10-31T03:33:02;146.73;;;48.40;;
11835;SDS011;5977;51.972;7.640;2022-10-31T03:35:38;147.20;;;48.57;;
11835;SDS011;5977;51.972;7.640;2022-10-31T03:38:09;145.93;;;47.90;;
11835;SDS011;5977;51.972;7.640;2022-10-31T03:40:38;146.33;;;48.13;;
11835;SDS011;5977;51.972;7.640;2022-10-31T03:43:12;146.23;;;48.07;;
11835;SDS011;5977;51.972;7.640;2022-10-31T03:45:44;146.47;;;48.37;;
11835;SDS011;5977;51.972;7.640;2022-10-31T03:48:14;145.97;;;48.07;;
11835;SDS011;5977;51.972;7.640;2022-10-31T03:50:45;145.67;;;47.87;;
11835;SDS011;5977;51.972;7.640;2022-10-31T03:53:22;146.17;;;48.00;;
11835;SDS011;5977;51.972;7.640;2022-10-31T03:55:55;147.03;;;48.27;;
11835;SDS011;5977;51.972;7.640;2022-10-31T03:58:32;146.40;;;47.93;;
11835;SDS011;5977;51.972;7.640;2022-10-31T04:01:05;146.53;;;48.17;;
11835;SDS011;5977;51.972;7.640;2022-10-31T04:03:37;146.23;;;47.93;;
11835;SDS011;5977;51.972;7.640;2022-10-31T04:06:09;146.70;;;48.23;;
11835;SDS011;5977;51.972;7.640;2022-10-31T04:08:42;146.27;;;47.80;;
11835;SDS011;5977;51.972;7.640;2022-10-31T04:11:17;146.37;;;48.07;;
11835;SDS011;5977;51.972;7.640;2022-10-31T04:14:06;146.63;;;48.27;;
11835;SDS011;5977;51.972;7.640;2022-10-31T04:16:36;146.20;;;48.03;;
11835;SDS011;5977;51.972;7.640;2022-10-31T04:19:04;146.30;;;47.97;;
11835;SDS011;5977;51.972;7.640;2022-10-31T04:21:33;145.77;;;47.83;;
11835;SDS011;5977;51.972;7.640;2022-10-31T04:24:01;146.30;;;48.10;;
11835;SDS011;5977;51.972;7.640;2022-10-31T04:26:29;146.07;;;48.10;;
11835;SDS011;5977;51.972;7.640;2022-10-31T04:28:57;146.07;;;48.13;;
11835;SDS011;5977;51.972;7.640;2022-10-31T04:31:27;146.40;;;48.17;;
11835;SDS011;5977;51.972;7.640;2022-10-31T04:33:54;145.63;;;47.83;;
11835;SDS011;5977;51.972;7.640;2022-10-31T04:36:22;145.87;;;47.80;;
11835;SDS011;5977;51.972;7.640;2022-10-31T04:38:53;146.47;;;47.97;;
11835;SDS011;5977;51.972;7.640;2022-10-31T04:41:34;146.37;;;48.07;;
11835;SDS011;5977;51.972;7.640;2022-10-31T04:44:09;146.80;;;48.23;;
11835;SDS011;5977;51.972;7.640;2022-10-31T04:46:36;145.73;;;47.80;;
11835;SDS011;5977;51.972;7.640;2022-10-31T04:49:05;145.67;;;47.93;;
11835;SDS011;5977;51.972;7.640;2022-10-31T04:51:34;145.77;;;47.77;;
11835;SDS011;5977;51.972;7.640;2022-10-31T04:54:03;146.30;;;48.13;;
11835;SDS011;5977;51.972;7.640;2022-10-31T04:56:50;146.03;;;47.83;;
11835;SDS011;5977;51.972;7.640;2022-10-31T04:59:20;145.87;;;47.73;;
11835;SDS011;5977;51.972;7.640;2022-10-31T05:01:52;146.63;;;48.00;;
11835;SDS011;5977;51.972;7.640;2022-10-31T05:04:30;146.07;;;47.93;;
11835;SDS011;5977;51.972;7.640;2022-10-31T05:06:58;146.53;;;48.17;;
11835;SDS011;5977;51.972;7.640;2022-10-31T05:09:27;146.10;;;48.17;;
11835;SDS011;5977;51.972;7.640;2022-10-31T05:11:55;145.87;;;47.80;;
11835;SDS011;5977;51.972;7.640;2022-10-31T05:14:43;146.00;;;47.83;;
11835;SDS011;5977;51.972;7.640;2022-10-31T05:17:32;146.47;;;48.07;;
11835;SDS011;5977;51.972;7.640;2022-10-31T05:20:09;146.47;;;48.03;;
11835;SDS011;5977;51.972;7.640;2022-10-31T05:23:02;145.87;;;47.77;;
11835;SDS011;5977;51.972;7.640;2022-10-31T05:25:31;146.00;;;47.90;;
11835;SDS011;5977;51.972;7.640;2022-10-31T05:28:02;145.93;;;47.83;;
11835;SDS011;5977;51.972;7.640;2022-10-31T05:30:31;145.93;;;47.67;;
11835;SDS011;5977;51.972;7.640;2022-10-31T05:32:59;145.80;;;47.67;;
11835;SDS011;5977;51.972;7.640;2022-10-31T05:35:43;145.70;;;47.70;;
11835;SDS011;5977;51.972;7.640;2022-10-31T05:38:25;145.47;;;47.50;;
11835;SDS011;5977;51.972;7.640;2022-10-31T05:40:58;146.63;;;48.03;;
11835;SDS011;5977;51.972;7.640;2022-10-31T05:43:29;145.53;;;47.83;;
11835;SDS011;5977;51.972;7.640;2022-10-31T05:45:58;146.30;;;48.37;;
11835;SDS011;5977;51.972;7.640;2022-10-31T05:48:44;145.03;;;47.57;;
11835;SDS011;5977;51.972;7.640;2022-10-31T05:51:31;146.47;;;48.10;;
11835;SDS011;5977;51.972;7.640;2022-10-31T05:53:59;145.47;;;47.63;;
11835;SDS011;5977;51.972;7.640;2022-10-31T05:56:29;145.00;;;47.60;;
11835;SDS011;5977;51.972;7.640;2022-10-31T05:58:58;145.90;;;47.97;;
11835;SDS011;5977;51.972;7.640;2022-10-31T06:01:26;145.97;;;47.87;;
11835;SDS011;5977;51.972;7.640;2022-10-31T06:03:57;145.47;;;47.87;;
11835;SDS011;5977;51.972;7.640;2022-10-31T06:06:25;145.57;;;47.83;;
11835;SDS011;5977;51.972;7.640;2022-10-31T06:08:52;145.57;;;47.73;;
11835;SDS011;5977;51.972;7.640;2022-10-31T06:11:21;145.93;;;47.77;;
11835;SDS011;5977;51.972;7.640;2022-10-31T06:14:02;146.03;;;48.07;;
11835;SDS011;5977;51.972;7.640;2022-10-31T06:16:37;145.00;;;47.50;;
11835;SDS011;5977;51.972;7.640;2022-10-31T06:19:25;145.40;;;47.63;;
11835;SDS011;5977;51.972;7.640;2022-10-31T06:21:53;144.93;;;47.60;;
11835;SDS011;5977;51.972;7.640;2022-10-31T06:24:21;145.07;;;47.70;;
11835;SDS011;5977;51.972;7.640;2022-10-31T06:26:59;144.97;;;47.57;;
11835;SDS011;5977;51.972;7.640;2022-10-31T06:29:28;144.80;;;47.70;;
11835;SDS011;5977;51.972;7.640;2022-10-31T06:32:03;145.47;;;47.87;;
11835;SDS011;5977;51.972;7.640;2022-10-31T06:34:37;144.57;;;47.53;;
11835;SDS011;5977;51.972;7.640;2022-10-31T06:37:05;144.70;;;47.47;;
11835;SDS011;5977;51.972;7.640;2022-10-31T06:39:33;144.60;;;47.50;;
11835;SDS011;5977;51.972;7.640;2022-10-31T06:42:01;144.10;;;47.30;;
11835;SDS011;5977;51.972;7.640;2022-10-31T06:44:32;144.83;;;47.60;;
11835;SDS011;5977;51.972;7.640;2022-10-31T06:47:26;144.50;;;47.40;;
11835;SDS011;5977;51.972;7.640;2022-10-31T06:50:02;145.37;;;47.77;;
11835;SDS011;5977;51.972;7.640;2022-10-31T06:52:30;145.13;;;47.80;;
11835;SDS011;5977;51.972;7.640;2022-10-31T06:54:58;145.20;;;47.77;;
11835;SDS011;5977;51.972;7.640;2022-10-31T06:57:26;144.07;;;47.33;;
11835;SDS011;5977;51.972;7.640;2022-10-31T06:59:56;144.83;;;47.63;;
11835;SDS011;5977;51.972;7.640;2022-10-31T07:02:31;144.20;;;47.47;;
11835;SDS011;5977;51.972;7.640;2022-10-31T07:05:00;144.93;;;47.90;;
11835;SDS011;5977;51.972;7.640;2022-10-31T07:07:27;144.27;;;47.43;;
11835;SDS011;5977;51.972;7.640;2022-10-31T07:09:55;144.13;;;47.70;;
11835;SDS011;5977;51.972;7.640;2022-10-31T07:12:40;143.73;;;47.50;;
11835;SDS011;5977;51.972;7.640;2022-10-31T07:15:09;143.10;;;47.20;;
11835;SDS011;5977;51.972;7.640;2022-10-31T07:17:37;144.60;;;48.10;;
11835;SDS011;5977;51.972;7.640;2022-10-31T07:20:07;144.33;;;47.83;;
11835;SDS011;5977;51.972;7.640;2022-10-31T07:22:36;144.40;;;47.83;;
11835;SDS011;5977;51.972;7.640;2022-10-31T07:25:07;144.20;;;47.57;;
11835;SDS011;5977;51.972;7.640;2022-10-31T07:27:54;144.33;;;47.70;;
11835;SDS011;5977;51.972;7.640;2022-10-31T07:30:24;144.33;;;47.67;;
11835;SDS011;5977;51.972;7.640;2022-10-31T07:32:54;144.33;;;47.77;;
11835;SDS011;5977;51.972;7.640;2022-10-31T07:35:27;144.40;;;47.67;;
11835;SDS011;5977;51.972;7.640;2022-10-31T07:37:57;144.53;;;47.63;;
11835;SDS011;5977;51.972;7.640;2022-10-31T07:40:33;144.83;;;48.03;;
11835;SDS011;5977;51.972;7.640;2022-10-31T07:43:01;144.87;;;47.77;;
11835;SDS011;5977;51.972;7.640;2022-10-31T07:46:06;143.53;;;47.13;;
11835;SDS011;5977;51.972;7.640;2022-10-31T07:48:46;145.03;;;47.93;;
11835;SDS011;5977;51.972;7.640;2022-10-31T07:51:32;144.70;;;48.00;;
11835;SDS011;5977;51.972;7.640;2022-10-31T07:54:27;144.53;;;47.70;;
11835;SDS011;5977;51.972;7.640;2022-10-31T07:56:55;145.13;;;48.07;;
11835;SDS011;5977;51.972;7.640;2022-10-31T07:59:23;145.33;;;48.27;;
11835;SDS011;5977;51.972;7.640;2022-10-31T08:01:54;144.97;;;47.97;;
11835;SDS011;5977;51.972;7.640;2022-10-31T08:04:42;145.10;;;48.07;;
11835;SDS011;5977;51.972;7.640;2022-10-31T08:07:35;145.50;;;48.50;;
11835;SDS011;5977;51.972;7.640;2022-10-31T08:10:06;145.47;;;48.40;;
11835;SDS011;5977;51.972;7.640;2022-10-31T08:12:34;145.17;;;48.37;;
11835;SDS011;5977;51.972;7.640;2022-10-31T08:15:06;145.63;;;48.60;;
11835;SDS011;5977;51.972;7.640;2022-10-31T08:17:37;144.80;;;48.03;;
11835;SDS011;5977;51.972;7.640;2022-10-31T08:20:06;145.60;;;48.63;;
11835;SDS011;5977;51.972;7.640;2022-10-31T08:22:41;145.47;;;48.57;;
11835;SDS011;5977;51.972;7.640;2022-10-31T08:25:11;145.33;;;48.37;;
11835;SDS011;5977;51.972;7.640;2022-10-31T08:27:39;146.73;;;49.30;;
11835;SDS011;5977;51.972;7.640;2022-10-31T08:30:15;145.83;;;48.80;;
11835;SDS011;5977;51.972;7.640;2022-10-31T08:33:00;145.17;;;48.43;;
11835;SDS011;5977;51.972;7.640;2022-10-31T08:35:48;146.17;;;48.83;;
11835;SDS011;5977;51.972;7.640;2022-10-31T08:38:34;146.40;;;49.13;;
11835;SDS011;5977;51.972;7.640;2022-10-31T08:41:02;146.43;;;49.17;;
11835;SDS011;5977;51.972;7.640;2022-10-31T08:43:30;145.20;;;48.40;;
11835;SDS011;5977;51.972;7.640;2022-10-31T08:45:58;146.10;;;49.00;;
11835;SDS011;5977;51.972;7.640;2022-10-31T08:48:28;145.53;;;48.53;;
11835;SDS011;5977;51.972;7.640;2022-10-31T08:50:59;146.27;;;48.93;;
11835;SDS011;5977;51.972;7.640;2022-10-31T08:53:28;145.83;;;48.60;;
11835;SDS011;5977;51.972;7.640;2022-10-31T08:56:16;145.87;;;48.80;;
11835;SDS011;5977;51.972;7.640;2022-10-31T08:58:44;146.17;;;49.17;;
11835;SDS011;5977;51.972;7.640;2022-10-31T09:01:12;146.40;;;49.20;;
11835;SDS011;5977;51.972;7.640;2022-10-31T09:03:43;146.57;;;49.17;;
11835;SDS011;5977;51.972;7.640;2022-10-31T09:06:11;146.87;;;49.30;;
11835;SDS011;5977;51.972;7.640;2022-10-31T09:08:39;146.33;;;48.83;;
11835;SDS011;5977;51.972;7.640;2022-10-31T09:11:08;145.43;;;48.70;;
11835;SDS011;5977;51.972;7.640;2022-10-31T09:13:55;146.27;;;48.90;;
11835;SDS011;5977;51.972;7.640;2022-10-31T09:16:38;146.27;;;48.93;;
11835;SDS011;5977;51.972;7.640;2022-10-31T09:19:13;146.53;;;49.13;;
11835;SDS011;5977;51.972;7.640;2022-10-31T09:21:44;146.00;;;48.67;;
11835;SDS011;5977;51.972;7.640;2022-10-31T09:24:12;147.47;;;49.70;;
11835;SDS011;5977;51.972;7.640;2022-10-31T09:26:41;147.77;;;49.73;;
11835;SDS011;5977;51.972;7.640;2022-10-31T09:29:16;146.37;;;48.97;;
11835;SDS011;5977;51.972;7.640;2022-10-31T09:31:47;146.80;;;49.20;;
11835;SDS011;5977;51.972;7.640;2022-10-31T09:34:30;146.87;;;49.47;;
11835;SDS011;5977;51.972;7.640;2022-10-31T09:37:06;147.13;;;49.43;;
11835;SDS011;5977;51.972;7.640;2022-10-31T09:39:34;147.10;;;49.57;;
11835;SDS011;5977;51.972;7.640;2022-10-31T09:42:19;146.53;;;49.30;;
11835;SDS011;5977;51.972;7.640;2022-10-31T09:44:59;146.20;;;49.03;;
11835;SDS011;5977;51.972;7.640;2022-10-31T09:47:39;147.03;;;49.27;;
11835;SDS011;5977;51.972;7.640;2022-10-31T09:50:48;146.80;;;49.23;;
11835;SDS011;5977;51.972;7.640;2022-10-31T09:53:46;147.13;;;49.60;;
11835;SDS011;5977;51.972;7.640;2022-10-31T09:56:21;147.63;;;49.77;;
11835;SDS011;5977;51.972;7.640;2022-10-31T09:58:55;146.80;;;49.20;;
11835;SDS011;5977;51.972;7.640;2022-10-31T10:01:31;147.03;;;49.40;;
11835;SDS011;5977;51.972;7.640;2022-10-31T10:04:12;147.53;;;49.53;;
11835;SDS011;5977;51.972;7.640;2022-10-31T10:07:05;147.37;;;49.57;;
11835;SDS011;5977;51.972;7.640;2022-10-31T10:09:44;147.30;;;49.50;;
11835;SDS011;5977;51.972;7.640;2022-10-31T10:12:37;146.93;;;49.57;;
11835;SDS011;5977;51.972;7.640;2022-10-31T10:15:25;147.13;;;49.40;;
11835;SDS011;5977;51.972;7.640;2022-10-31T10:18:03;146.97;;;49.10;;
11835;SDS011;5977;51.972;7.640;2022-10-31T10:20:37;147.80;;;49.70;;
11835;SDS011;5977;51.972;7.640;2022-10-31T10:23:17;147.70;;;49.60;;
11835;SDS011;5977;51.972;7.640;2022-10-31T10:25:58;146.67;;;49.13;;
11835;SDS011;5977;51.972;7.640;2022-10-31T10:28:37;146.73;;;49.10;;
11835;SDS011;5977;51.972;7.640;2022-10-31T10:31:09;147.57;;;49.63;;
11835;SDS011;5977;51.972;7.640;2022-10-31T10:33:42;147.90;;;50.13;;
11835;SDS011;5977;51.972;7.640;2022-10-31T10:36:16;147.23;;;49.40;;
11835;SDS011;5977;51.972;7.640;2022-10-31T10:38:50;147.27;;;49.60;;
11835;SDS011;5977;51.972;7.640;2022-10-31T10:41:21;148.03;;;49.90;;
11835;SDS011;5977;51.972;7.640;2022-10-31T10:43:52;147.40;;;49.83;;
11835;SDS011;5977;51.972;7.640;2022-10-31T10:46:21;147.37;;;49.70;;
11835;SDS011;5977;51.972;7.640;2022-10-31T10:49:15;147.47;;;49.47;;
11835;SDS011;5977;51.972;7.640;2022-10-31T10:51:45;146.87;;;49.50;;
11835;SDS011;5977;51.972;7.640;2022-10-31T10:57:28;146.77;;;49.30;;
11835;SDS011;5977;51.972;7.640;2022-10-31T11:00:12;147.37;;;49.47;;
11835;SDS011;5977;51.972;7.640;2022-10-31T11:02:44;147.30;;;49.53;;
11835;SDS011;5977;51.972;7.640;2022-10-31T11:05:15;147.53;;;49.60;;
11835;SDS011;5977;51.972;7.640;2022-10-31T11:07:50;147.43;;;49.73;;
11835;SDS011;5977;51.972;7.640;2022-10-31T11:10:19;147.60;;;50.27;;
11835;SDS011;5977;51.972;7.640;2022-10-31T11:12:58;147.67;;;49.57;;
11835;SDS011;5977;51.972;7.640;2022-10-31T11:15:30;148.03;;;49.97;;
11835;SDS011;5977;51.972;7.640;2022-10-31T11:18:00;146.73;;;49.33;;
11835;SDS011;5977;51.972;7.640;2022-10-31T11:20:30;147.73;;;49.90;;
11835;SDS011;5977;51.972;7.640;2022-10-31T11:23:02;147.40;;;49.60;;
11835;SDS011;5977;51.972;7.640;2022-10-31T11:25:34;146.73;;;49.43;;
11835;SDS011;5977;51.972;7.640;2022-10-31T11:28:03;146.80;;;49.50;;
11835;SDS011;5977;51.972;7.640;2022-10-31T11:30:35;147.80;;;50.03;;
11835;SDS011;5977;51.972;7.640;2022-10-31T11:33:11;147.57;;;49.93;;
11835;SDS011;5977;51.972;7.640;2022-10-31T11:35:44;147.70;;;50.03;;
11835;SDS011;5977;51.972;7.640;2022-10-31T11:38:20;147.60;;;49.87;;
11835;SDS011;5977;51.972;7.640;2022-10-31T11:40:52;147.00;;;49.73;;
11835;SDS011;5977;51.972;7.640;2022-10-31T11:43:22;147.93;;;49.87;;
11835;SDS011;5977;51.972;7.640;2022-10-31T11:45:50;147.43;;;49.80;;
11835;SDS011;5977;51.972;7.640;2022-10-31T11:48:19;148.13;;;50.20;;
11835;SDS011;5977;51.972;7.640;2022-10-31T11:50:50;147.50;;;49.37;;
11835;SDS011;5977;51.972;7.640;2022-10-31T11:53:24;147.73;;;49.87;;
11835;SDS011;5977;51.972;7.640;2022-10-31T11:56:05;147.77;;;49.80;;
11835;SDS011;5977;51.972;7.640;2022-10-31T11:58:40;147.53;;;49.77;;
11835;SDS011;5977;51.972;7.640;2022-10-31T12:01:19;147.77;;;49.83;;
11835;SDS011;5977;51.972;7.640;2022-10-31T12:03:54;148.00;;;50.00;;
11835;SDS011;5977;51.972;7.640;2022-10-31T12:06:28;147.87;;;49.83;;
11835;SDS011;5977;51.972;7.640;2022-10-31T12:09:00;147.13;;;49.30;;
11835;SDS011;5977;51.972;7.640;2022-10-31T12:11:35;147.40;;;49.57;;
11835;SDS011;5977;51.972;7.640;2022-10-31T12:14:13;147.97;;;49.73;;
11835;SDS011;5977;51.972;7.640;2022-10-31T12:16:50;148.27;;;49.80;;
11835;SDS011;5977;51.972;7.640;2022-10-31T12:19:27;147.80;;;49.80;;
11835;SDS011;5977;51.972;7.640;2022-10-31T12:22:04;147.20;;;49.33;;
11835;SDS011;5977;51.972;7.640;2022-10-31T12:24:59;147.73;;;49.80;;
11835;SDS011;5977;51.972;7.640;2022-10-31T12:27:53;147.20;;;49.47;;
11835;SDS011;5977;51.972;7.640;2022-10-31T12:30:28;147.17;;;49.33;;
11835;SDS011;5977;51.972;7.640;2022-10-31T12:33:09;147.47;;;49.87;;
11835;SDS011;5977;51.972;7.640;2022-10-31T12:35:46;147.93;;;50.07;;
11835;SDS011;5977;51.972;7.640;2022-10-31T12:41:21;147.53;;;50.07;;
11835;SDS011;5977;51.972;7.640;2022-10-31T12:44:02;147.87;;;50.07;;
11835;SDS011;5977;51.972;7.640;2022-10-31T12:46:48;147.90;;;49.73;;
11835;SDS011;5977;51.972;7.640;2022-10-31T12:49:31;147.70;;;49.80;;
11835;SDS011;5977;51.972;7.640;2022-10-31T12:52:13;147.57;;;49.80;;
11835;SDS011;5977;51.972;7.640;2022-10-31T12:54:57;148.07;;;50.17;;
11835;SDS011;5977;51.972;7.640;2022-10-31T12:57:38;147.70;;;49.87;;
11835;SDS011;5977;51.972;7.640;2022-10-31T13:00:12;147.33;;;49.60;;
11835;SDS011;5977;51.972;7.640;2022-10-31T13:02:44;147.33;;;49.63;;
11835;SDS011;5977;51.972;7.640;2022-10-31T13:05:19;146.97;;;49.63;;
11835;SDS011;5977;51.972;7.640;2022-10-31T13:07:54;147.73;;;49.93;;
11835;SDS011;5977;51.972;7.640;2022-10-31T13:10:25;146.97;;;49.47;;
11835;SDS011;5977;51.972;7.640;2022-10-31T13:12:58;147.60;;;49.70;;
11835;SDS011;5977;51.972;7.640;2022-10-31T13:15:33;147.77;;;50.13;;
11835;SDS011;5977;51.972;7.640;2022-10-31T13:18:12;147.20;;;49.60;;
11835;SDS011;5977;51.972;7.640;2022-10-31T13:20:48;147.77;;;49.97;;
11835;SDS011;5977;51.972;7.640;2022-10-31T13:23:21;148.50;;;50.27;;
11835;SDS011;5977;51.972;7.640;2022-10-31T13:26:15;147.50;;;49.77;;
11835;SDS011;5977;51.972;7.640;2022-10-31T13:28:50;147.97;;;50.17;;
11835;SDS011;5977;51.972;7.640;2022-10-31T13:31:24;147.57;;;49.77;;
11835;SDS011;5977;51.972;7.640;2022-10-31T13:33:54;147.80;;;50.30;;
11835;SDS011;5977;51.972;7.640;2022-10-31T13:36:26;146.83;;;49.43;;
11835;SDS011;5977;51.972;7.640;2022-10-31T13:39:02;147.07;;;49.37;;
11835;SDS011;5977;51.972;7.640;2022-10-31T13:41:51;147.83;;;50.07;;
11835;SDS011;5977;51.972;7.640;2022-10-31T13:44:24;147.43;;;49.67;;
11835;SDS011;5977;51.972;7.640;2022-10-31T13:46:55;147.90;;;50.20;;
11835;SDS011;5977;51.972;7.640;2022-10-31T13:49:26;147.77;;;50.03;;
11835;SDS011;5977;51.972;7.640;2022-10-31T13:52:05;147.43;;;49.67;;
11835;SDS011;5977;51.972;7.640;2022-10-31T13:54:40;147.00;;;49.60;;
11835;SDS011;5977;51.972;7.640;2022-10-31T13:57:15;147.87;;;50.20;;
11835;SDS011;5977;51.972;7.640;2022-10-31T13:59:49;146.70;;;49.57;;
11835;SDS011;5977;51.972;7.640;2022-10-31T14:02:23;147.67;;;49.83;;
11835;SDS011;5977;51.972;7.640;2022-10-31T14:04:55;147.47;;;49.77;;
11835;SDS011;5977;51.972;7.640;2022-10-31T14:07:25;147.77;;;49.97;;
11835;SDS011;5977;51.972;7.640;2022-10-31T14:09:56;147.57;;;49.90;;
11835;SDS011;5977;51.972;7.640;2022-10-31T14:12:29;148.13;;;50.17;;
11835;SDS011;5977;51.972;7.640;2022-10-31T14:15:03;147.33;;;49.67;;
11835;SDS011;5977;51.972;7.640;2022-10-31T14:17:46;147.90;;;49.80;;
11835;SDS011;5977;51.972;7.640;2022-10-31T14:20:22;147.60;;;49.90;;
11835;SDS011;5977;51.972;7.640;2022-10-31T14:23:09;147.73;;;49.77;;
11835;SDS011;5977;51.972;7.640;2022-10-31T14:25:39;147.33;;;49.90;;
11835;SDS011;5977;51.972;7.640;2022-10-31T14:28:20;147.63;;;49.70;;
11835;SDS011;5977;51.972;7.640;2022-10-31T14:30:53;147.60;;;50.03;;
11835;SDS011;5977;51.972;7.640;2022-10-31T14:33:25;147.73;;;50.20;;
11835;SDS011;5977;51.972;7.640;2022-10-31T14:35:56;147.97;;;50.07;;
11835;SDS011;5977;51.972;7.640;2022-10-31T14:38:47;148.00;;;50.17;;
11835;SDS011;5977;51.972;7.640;2022-10-31T14:41:25;147.93;;;50.00;;
11835;SDS011;5977;51.972;7.640;2022-10-31T14:47:10;148.00;;;50.27;;
11835;SDS011;5977;51.972;7.640;2022-10-31T14:50:02;147.60;;;49.60;;
11835;SDS011;5977;51.972;7.640;2022-10-31T14:52:41;146.87;;;49.30;;
11835;SDS011;5977;51.972;7.640;2022-10-31T14:55:15;148.17;;;50.33;;
11835;SDS011;5977;51.972;7.640;2022-10-31T14:57:45;148.27;;;50.57;;
11835;SDS011;5977;51.972;7.640;2022-10-31T15:00:18;147.70;;;49.80;;
11835;SDS011;5977;51.972;7.640;2022-10-31T15:02:50;147.03;;;49.53;;
11835;SDS011;5977;51.972;7.640;2022-10-31T15:05:31;147.40;;;49.57;;
11835;SDS011;5977;51.972;7.640;2022-10-31T15:08:01;147.73;;;49.87;;
11835;SDS011;5977;51.972;7.640;2022-10-31T15:10:30;147.37;;;49.53;;
11835;SDS011;5977;51.972;7.640;2022-10-31T15:13:10;147.37;;;49.70;;
11835;SDS011;5977;51.972;7.640;2022-10-31T15:15:44;147.33;;;49.70;;
11835;SDS011;5977;51.972;7.640;2022-10-31T15:18:18;147.63;;;49.83;;
11835;SDS011;5977;51.972;7.640;2022-10-31T15:20:49;147.50;;;49.53;;